Sasabe, AZ (85633)

9:36 AM MST on December 19, 2014 (GMT -0700)
Nogales International | Change Station
CLOSE
Current Station
Airport
Location: Nogales,
Elevation: 3944 ft
Nearby Weather Stations

Elev 3944 ft 31.42 °N, 110.85 °W | Updated 3 minutes ago

Mostly Cloudy
Mostly Cloudy
38 °F
Feels Like 38 °F
N
0
Wind Variable Wind from North

Today
High -- | Low -- °F
--% Chance of Precip.
Yesterday
High -- | Low -- °F
Precip. -- in
7:20 AM 5:26 PM
Waning Crescent, 7% visible
Pressure 30.22 in
Visibility 1.0 miles
Clouds
Dew Point 37 °F
Humidity 97%
Rainfall 0.00 in
Snow Depth Not available.
UV Not available.
Pollen 4.40 out of 12
Air Quality Not available.
Flu Activity Not available.
SPECI KOLS 191633Z AUTO 00000KT 1SM BR VV001 03/03 A3022 RMK AO2 VIS 1/4V2 1/2 T00330028

More Conditions Fewer Conditions

Pressure 30.22 in
Visibility 1.0 miles
Clouds
Dew Point 37 °F
Humidity 97%
Rainfall 0.00 in
Snow Depth Not available.
UV Not available.
Pollen 4.40 out of 12
Air Quality Not available.
Flu Activity Not available.
SPECI KOLS 191633Z AUTO 00000KT 1SM BR VV001 03/03 A3022 RMK AO2 VIS 1/4V2 1/2 T00330028

More Conditions Fewer Conditions

Nowcast | as of 8:37 am MST on December 19, 2014

Lingering patchy fog should quickly burn off this morning. However through 10 am motorists should be aware of the possibility of reduced visibilities at times. Some roadways affected include Interstate 19 from Green Valley to Nogales and Interstate 10 from Bowie eastward into New Mexico. Several other roadways in Cochise...Graham and southern Greenlee counties may also be impacted.

×

10-Day Weather Forecast

Almanac

Astronomy

Dec. 19, 2014 Rise Set
Actual Time
Civil Twilight
Nautical Twilight
Astronomical Twilight
Moon
Length of Visible Light
Length of Day
Tomorrow will be .
, % of the Moon is Illuminated

Today's Extremes

State Highs State Lows

Community

WunderPhotos

Upload Photos

1,779,005 photos uploaded!

WunderBlogs® & News

Nearby

Air Quality

  Air Quality AQ Index Pollutant
Not available.

Snow Depth

Station Depth Elevation

Earthquake Activity

City Distance Mag. Time & Date
Minimum magnitude displayed is 2.5.

Coastal Water Temperatures

Place Temperature

Nearby Weather Stations